sensor_id;sensor_type;location;lat;lon;timestamp;pressure;altitude;pressure_sealevel;temperature;humidity
72226;BME280;60130;52.250;5.048;2023-09-19T00:00:00;1005.7;;;14.6;81.6
72226;BME280;60130;52.250;5.048;2023-09-19T00:05:00;1005.8;;;14.7;81.4
72226;BME280;60130;52.250;5.048;2023-09-19T00:10:00;1005.9;;;14.6;81.0
72226;BME280;60130;52.250;5.048;2023-09-19T00:15:00;1005.9;;;14.6;81.0
72226;BME280;60130;52.250;5.048;2023-09-19T00:20:00;1006.0;;;14.5;81.1
72226;BME280;60130;52.250;5.048;2023-09-19T00:25:00;1006.0;;;14.5;81.1
72226;BME280;60130;52.250;5.048;2023-09-19T00:30:00;1006.0;;;14.6;81.6
72226;BME280;60130;52.250;5.048;2023-09-19T00:35:00;1006.0;;;14.5;81.9
72226;BME280;60130;52.250;5.048;2023-09-19T00:40:00;1006.0;;;14.5;82.3
72226;BME280;60130;52.250;5.048;2023-09-19T00:45:00;1006.1;;;14.4;82.2
72226;BME280;60130;52.250;5.048;2023-09-19T00:50:00;1006.1;;;14.5;82.2
72226;BME280;60130;52.250;5.048;2023-09-19T00:55:00;1006.2;;;14.5;82.4
72226;BME280;60130;52.250;5.048;2023-09-19T01:00:01;1006.2;;;14.6;82.4
72226;BME280;60130;52.250;5.048;2023-09-19T01:05:00;1006.2;;;14.7;81.9
72226;BME280;60130;52.250;5.048;2023-09-19T01:10:00;1006.2;;;14.7;81.9
72226;BME280;60130;52.250;5.048;2023-09-19T01:15:06;1006.2;;;14.8;81.8
72226;BME280;60130;52.250;5.048;2023-09-19T01:20:09;1006.2;;;14.7;81.8
72226;BME280;60130;52.250;5.048;2023-09-19T01:25:19;1006.2;;;14.7;81.4
72226;BME280;60130;52.250;5.048;2023-09-19T01:30:08;1006.2;;;14.8;80.7
72226;BME280;60130;52.250;5.048;2023-09-19T01:35:00;1006.2;;;15.0;79.2
72226;BME280;60130;52.250;5.048;2023-09-19T01:40:02;1006.3;;;15.0;78.7
72226;BME280;60130;52.250;5.048;2023-09-19T01:45:04;1006.4;;;15.0;78.5
72226;BME280;60130;52.250;5.048;2023-09-19T01:50:07;1006.3;;;15.0;79.6
72226;BME280;60130;52.250;5.048;2023-09-19T01:55:05;1006.4;;;15.0;78.5
72226;BME280;60130;52.250;5.048;2023-09-19T02:00:02;1006.2;;;15.0;78.2
72226;BME280;60130;52.250;5.048;2023-09-19T02:05:00;1006.2;;;15.0;78.6
72226;BME280;60130;52.250;5.048;2023-09-19T02:10:00;1006.1;;;15.0;78.7
72226;BME280;60130;52.250;5.048;2023-09-19T02:15:00;1006.2;;;15.1;78.7
72226;BME280;60130;52.250;5.048;2023-09-19T02:20:00;1006.3;;;15.0;78.5
72226;BME280;60130;52.250;5.048;2023-09-19T02:25:00;1006.4;;;15.0;78.4
72226;BME280;60130;52.250;5.048;2023-09-19T02:30:00;1006.3;;;15.0;78.8
72226;BME280;60130;52.250;5.048;2023-09-19T02:35:00;1006.3;;;15.0;78.5
72226;BME280;60130;52.250;5.048;2023-09-19T02:40:00;1006.4;;;15.0;78.3
72226;BME280;60130;52.250;5.048;2023-09-19T02:45:00;1006.5;;;15.0;78.8
72226;BME280;60130;52.250;5.048;2023-09-19T02:50:00;1006.5;;;15.0;78.8
72226;BME280;60130;52.250;5.048;2023-09-19T02:55:00;1006.5;;;14.9;78.9
72226;BME280;60130;52.250;5.048;2023-09-19T03:00:00;1006.3;;;14.9;79.2
72226;BME280;60130;52.250;5.048;2023-09-19T03:05:00;1006.4;;;14.9;80.0
72226;BME280;60130;52.250;5.048;2023-09-19T03:10:00;1006.3;;;14.9;79.9
72226;BME280;60130;52.250;5.048;2023-09-19T03:15:00;1006.3;;;15.0;79.1
72226;BME280;60130;52.250;5.048;2023-09-19T03:20:00;1006.3;;;15.0;78.9
72226;BME280;60130;52.250;5.048;2023-09-19T03:25:00;1006.2;;;15.1;78.7
72226;BME280;60130;52.250;5.048;2023-09-19T03:30:00;1006.2;;;15.1;78.2
72226;BME280;60130;52.250;5.048;2023-09-19T03:35:00;1006.2;;;15.2;78.0
72226;BME280;60130;52.250;5.048;2023-09-19T03:40:00;1006.2;;;15.1;79.1
72226;BME280;60130;52.250;5.048;2023-09-19T03:45:00;1006.2;;;15.1;79.0
72226;BME280;60130;52.250;5.048;2023-09-19T03:50:00;1006.3;;;15.0;79.5
72226;BME280;60130;52.250;5.048;2023-09-19T03:55:00;1006.5;;;15.0;80.2
72226;BME280;60130;52.250;5.048;2023-09-19T04:00:00;1006.6;;;15.0;79.8
72226;BME280;60130;52.250;5.048;2023-09-19T04:05:00;1006.5;;;15.0;80.1
72226;BME280;60130;52.250;5.048;2023-09-19T04:10:00;1006.6;;;14.7;81.1
72226;BME280;60130;52.250;5.048;2023-09-19T04:15:00;1006.7;;;14.7;81.3
72226;BME280;60130;52.250;5.048;2023-09-19T04:20:00;1006.7;;;14.7;81.7
72226;BME280;60130;52.250;5.048;2023-09-19T04:25:00;1006.7;;;14.7;81.8
72226;BME280;60130;52.250;5.048;2023-09-19T04:30:00;1006.8;;;14.7;81.6
72226;BME280;60130;52.250;5.048;2023-09-19T04:35:00;1006.8;;;14.7;82.1
72226;BME280;60130;52.250;5.048;2023-09-19T04:40:00;1006.8;;;14.7;81.9
72226;BME280;60130;52.250;5.048;2023-09-19T04:45:00;1006.8;;;14.7;81.8
72226;BME280;60130;52.250;5.048;2023-09-19T04:50:00;1006.7;;;14.7;81.4
72226;BME280;60130;52.250;5.048;2023-09-19T04:55:00;1006.7;;;14.8;81.6
72226;BME280;60130;52.250;5.048;2023-09-19T05:00:00;1006.8;;;14.7;81.5
72226;BME280;60130;52.250;5.048;2023-09-19T05:05:00;1006.9;;;14.8;81.5
72226;BME280;60130;52.250;5.048;2023-09-19T05:10:00;1006.8;;;14.6;82.3
72226;BME280;60130;52.250;5.048;2023-09-19T05:15:00;1006.8;;;14.6;82.3
72226;BME280;60130;52.250;5.048;2023-09-19T05:20:00;1006.9;;;14.5;82.7
72226;BME280;60130;52.250;5.048;2023-09-19T05:25:00;1006.8;;;14.5;82.8
72226;BME280;60130;52.250;5.048;2023-09-19T05:30:00;1006.8;;;14.5;82.9
72226;BME280;60130;52.250;5.048;2023-09-19T05:35:00;1007.0;;;14.6;82.7
72226;BME280;60130;52.250;5.048;2023-09-19T05:40:00;1006.9;;;14.7;82.5
72226;BME280;60130;52.250;5.048;2023-09-19T05:45:00;1007.0;;;14.8;82.1
72226;BME280;60130;52.250;5.048;2023-09-19T05:50:00;1007.0;;;14.8;82.2
72226;BME280;60130;52.250;5.048;2023-09-19T05:55:00;1007.1;;;14.8;82.0
72226;BME280;60130;52.250;5.048;2023-09-19T06:00:00;1007.0;;;14.8;82.5
72226;BME280;60130;52.250;5.048;2023-09-19T06:05:00;1007.2;;;14.8;82.0
72226;BME280;60130;52.250;5.048;2023-09-19T06:10:00;1007.2;;;15.0;81.7
72226;BME280;60130;52.250;5.048;2023-09-19T06:15:00;1007.2;;;15.0;81.6
72226;BME280;60130;52.250;5.048;2023-09-19T06:20:00;1007.2;;;15.1;81.3
72226;BME280;60130;52.250;5.048;2023-09-19T06:25:00;1007.1;;;15.4;80.9
72226;BME280;60130;52.250;5.048;2023-09-19T06:30:00;1007.0;;;15.5;80.6
72226;BME280;60130;52.250;5.048;2023-09-19T06:35:00;1007.2;;;15.5;80.6
72226;BME280;60130;52.250;5.048;2023-09-19T06:40:00;1007.2;;;15.6;80.2
72226;BME280;60130;52.250;5.048;2023-09-19T06:45:00;1007.2;;;15.6;80.3
72226;BME280;60130;52.250;5.048;2023-09-19T06:50:00;1007.2;;;15.6;80.8
72226;BME280;60130;52.250;5.048;2023-09-19T06:55:01;1007.2;;;15.6;81.6
72226;BME280;60130;52.250;5.048;2023-09-19T07:00:00;1007.2;;;15.6;81.5
72226;BME280;60130;52.250;5.048;2023-09-19T07:05:00;1007.1;;;15.7;81.3
72226;BME280;60130;52.250;5.048;2023-09-19T07:10:00;1007.3;;;15.8;81.1
72226;BME280;60130;52.250;5.048;2023-09-19T07:15:00;1007.3;;;16.0;81.2
72226;BME280;60130;52.250;5.048;2023-09-19T07:20:00;1007.4;;;16.0;80.6
72226;BME280;60130;52.250;5.048;2023-09-19T07:25:00;1007.5;;;16.2;80.8
72226;BME280;60130;52.250;5.048;2023-09-19T07:30:00;1007.5;;;16.2;80.7
72226;BME280;60130;52.250;5.048;2023-09-19T07:35:00;1007.4;;;16.2;80.7
72226;BME280;60130;52.250;5.048;2023-09-19T07:40:00;1007.5;;;16.5;79.8
72226;BME280;60130;52.250;5.048;2023-09-19T07:45:00;1007.5;;;16.5;80.2
72226;BME280;60130;52.250;5.048;2023-09-19T07:50:00;1007.6;;;16.7;79.6
72226;BME280;60130;52.250;5.048;2023-09-19T07:55:00;1007.6;;;17.0;78.8
72226;BME280;60130;52.250;5.048;2023-09-19T08:00:00;1007.5;;;16.9;77.8
72226;BME280;60130;52.250;5.048;2023-09-19T08:05:00;1007.6;;;17.0;78.5
72226;BME280;60130;52.250;5.048;2023-09-19T08:10:00;1007.5;;;17.1;78.8
72226;BME280;60130;52.250;5.048;2023-09-19T08:15:00;1007.5;;;17.1;78.3
72226;BME280;60130;52.250;5.048;2023-09-19T08:20:00;1007.6;;;17.3;78.3
72226;BME280;60130;52.250;5.048;2023-09-19T08:25:00;1007.5;;;17.5;77.8
72226;BME280;60130;52.250;5.048;2023-09-19T08:30:00;1007.4;;;17.4;77.5
72226;BME280;60130;52.250;5.048;2023-09-19T08:35:00;1007.4;;;17.5;77.4
72226;BME280;60130;52.250;5.048;2023-09-19T08:40:00;1007.4;;;17.6;77.3
72226;BME280;60130;52.250;5.048;2023-09-19T08:45:01;1007.4;;;17.6;76.8
72226;BME280;60130;52.250;5.048;2023-09-19T08:50:04;1007.4;;;17.8;76.9
72226;BME280;60130;52.250;5.048;2023-09-19T08:55:02;1007.5;;;17.9;76.5
72226;BME280;60130;52.250;5.048;2023-09-19T09:00:01;1007.6;;;18.2;76.5
72226;BME280;60130;52.250;5.048;2023-09-19T09:05:01;1007.6;;;17.9;75.7
72226;BME280;60130;52.250;5.048;2023-09-19T09:10:02;1007.5;;;17.9;76.0
72226;BME280;60130;52.250;5.048;2023-09-19T09:15:00;1007.5;;;17.8;76.0
72226;BME280;60130;52.250;5.048;2023-09-19T09:20:00;1007.3;;;17.7;76.0
72226;BME280;60130;52.250;5.048;2023-09-19T09:25:00;1007.3;;;17.8;76.5
72226;BME280;60130;52.250;5.048;2023-09-19T09:30:00;1007.4;;;17.7;75.9
72226;BME280;60130;52.250;5.048;2023-09-19T09:35:01;1007.4;;;17.3;76.4
72226;BME280;60130;52.250;5.048;2023-09-19T09:40:01;1007.5;;;17.4;76.1
72226;BME280;60130;52.250;5.048;2023-09-19T09:45:14;1007.3;;;17.8;75.3
72226;BME280;60130;52.250;5.048;2023-09-19T09:50:00;1007.3;;;18.2;75.0
72226;BME280;60130;52.250;5.048;2023-09-19T09:55:01;1007.2;;;18.1;74.9
72226;BME280;60130;52.250;5.048;2023-09-19T10:00:01;1007.2;;;18.3;73.9
72226;BME280;60130;52.250;5.048;2023-09-19T10:05:11;1007.2;;;18.5;73.5
72226;BME280;60130;52.250;5.048;2023-09-19T10:10:01;1007.2;;;18.6;72.8
72226;BME280;60130;52.250;5.048;2023-09-19T10:15:02;1007.2;;;18.7;72.6
72226;BME280;60130;52.250;5.048;2023-09-19T10:20:01;1007.0;;;18.9;72.1
72226;BME280;60130;52.250;5.048;2023-09-19T10:25:00;1007.0;;;19.1;71.4
72226;BME280;60130;52.250;5.048;2023-09-19T10:30:01;1006.9;;;19.4;69.9
72226;BME280;60130;52.250;5.048;2023-09-19T10:35:01;1006.9;;;19.4;71.0
72226;BME280;60130;52.250;5.048;2023-09-19T10:40:00;1006.8;;;19.2;70.8
72226;BME280;60130;52.250;5.048;2023-09-19T10:45:01;1006.7;;;20.1;69.5
72226;BME280;60130;52.250;5.048;2023-09-19T10:50:01;1006.8;;;20.4;68.5
72226;BME280;60130;52.250;5.048;2023-09-19T10:55:00;1006.6;;;20.2;68.7
72226;BME280;60130;52.250;5.048;2023-09-19T11:00:00;1006.8;;;20.1;68.6
72226;BME280;60130;52.250;5.048;2023-09-19T11:05:10;1006.7;;;20.2;68.5
72226;BME280;60130;52.250;5.048;2023-09-19T11:10:00;1006.8;;;19.5;69.6
72226;BME280;60130;52.250;5.048;2023-09-19T11:15:00;1006.6;;;19.4;70.2
72226;BME280;60130;52.250;5.048;2023-09-19T11:20:19;1006.5;;;19.5;70.3
72226;BME280;60130;52.250;5.048;2023-09-19T11:35:06;1006.5;;;19.5;69.3
72226;BME280;60130;52.250;5.048;2023-09-19T11:40:08;1006.3;;;19.8;68.5
72226;BME280;60130;52.250;5.048;2023-09-19T11:45:00;1006.5;;;20.0;67.6
72226;BME280;60130;52.250;5.048;2023-09-19T11:50:01;1006.5;;;19.7;68.9
72226;BME280;60130;52.250;5.048;2023-09-19T11:55:00;1006.5;;;19.5;70.0
72226;BME280;60130;52.250;5.048;2023-09-19T12:00:01;1006.4;;;19.3;70.3
72226;BME280;60130;52.250;5.048;2023-09-19T12:05:00;1006.4;;;19.3;70.4
72226;BME280;60130;52.250;5.048;2023-09-19T12:10:04;1006.4;;;19.1;71.0
72226;BME280;60130;52.250;5.048;2023-09-19T12:15:00;1006.4;;;19.0;71.0
72226;BME280;60130;52.250;5.048;2023-09-19T12:20:00;1006.4;;;18.9;71.4
72226;BME280;60130;52.250;5.048;2023-09-19T12:25:05;1006.4;;;19.0;71.5
72226;BME280;60130;52.250;5.048;2023-09-19T12:30:01;1006.4;;;19.2;71.6
72226;BME280;60130;52.250;5.048;2023-09-19T12:35:00;1006.5;;;19.5;70.9
72226;BME280;60130;52.250;5.048;2023-09-19T12:40:04;1006.4;;;20.1;69.5
72226;BME280;60130;52.250;5.048;2023-09-19T12:45:00;1006.3;;;20.3;68.9
72226;BME280;60130;52.250;5.048;2023-09-19T12:50:09;1006.3;;;19.9;69.4
72226;BME280;60130;52.250;5.048;2023-09-19T12:55:00;1006.3;;;19.5;71.0
72226;BME280;60130;52.250;5.048;2023-09-19T13:00:00;1006.4;;;19.6;71.0
72226;BME280;60130;52.250;5.048;2023-09-19T13:05:00;1006.3;;;19.4;71.7
72226;BME280;60130;52.250;5.048;2023-09-19T13:10:04;1006.3;;;19.3;71.6
72226;BME280;60130;52.250;5.048;2023-09-19T13:15:07;1006.3;;;19.7;70.5
72226;BME280;60130;52.250;5.048;2023-09-19T13:20:00;1006.3;;;19.8;71.2
72226;BME280;60130;52.250;5.048;2023-09-19T13:25:00;1006.3;;;19.7;70.4
72226;BME280;60130;52.250;5.048;2023-09-19T13:30:00;1006.3;;;19.4;71.6
72226;BME280;60130;52.250;5.048;2023-09-19T13:35:00;1006.4;;;19.2;72.4
72226;BME280;60130;52.250;5.048;2023-09-19T13:40:00;1006.5;;;19.1;73.9
72226;BME280;60130;52.250;5.048;2023-09-19T13:45:00;1006.5;;;18.8;74.3
72226;BME280;60130;52.250;5.048;2023-09-19T13:50:02;1006.3;;;18.6;76.8
72226;BME280;60130;52.250;5.048;2023-09-19T13:55:00;1006.2;;;18.6;76.8
72226;BME280;60130;52.250;5.048;2023-09-19T14:00:00;1006.2;;;18.7;76.0
72226;BME280;60130;52.250;5.048;2023-09-19T14:05:00;1006.3;;;18.9;74.2
72226;BME280;60130;52.250;5.048;2023-09-19T14:10:00;1006.5;;;19.0;74.4
72226;BME280;60130;52.250;5.048;2023-09-19T14:15:00;1006.4;;;18.6;77.8
72226;BME280;60130;52.250;5.048;2023-09-19T14:20:00;1006.2;;;18.6;77.3
72226;BME280;60130;52.250;5.048;2023-09-19T14:25:00;1006.2;;;18.7;77.3
72226;BME280;60130;52.250;5.048;2023-09-19T14:30:00;1006.2;;;18.5;79.0
72226;BME280;60130;52.250;5.048;2023-09-19T14:35:00;1006.4;;;18.3;78.8
72226;BME280;60130;52.250;5.048;2023-09-19T14:40:00;1006.5;;;17.8;81.9
72226;BME280;60130;52.250;5.048;2023-09-19T14:45:00;1006.7;;;17.3;85.8
72226;BME280;60130;52.250;5.048;2023-09-19T14:50:00;1006.5;;;17.0;87.7
72226;BME280;60130;52.250;5.048;2023-09-19T14:55:00;1006.5;;;17.1;87.8
72226;BME280;60130;52.250;5.048;2023-09-19T15:00:00;1006.4;;;17.1;87.7
72226;BME280;60130;52.250;5.048;2023-09-19T15:05:00;1006.2;;;17.3;86.4
72226;BME280;60130;52.250;5.048;2023-09-19T15:10:00;1006.2;;;17.4;85.5
72226;BME280;60130;52.250;5.048;2023-09-19T15:15:00;1006.2;;;17.5;84.8
72226;BME280;60130;52.250;5.048;2023-09-19T15:20:00;1006.3;;;17.7;81.8
72226;BME280;60130;52.250;5.048;2023-09-19T15:25:00;1006.2;;;17.9;80.8
72226;BME280;60130;52.250;5.048;2023-09-19T15:30:00;1006.2;;;18.0;80.3
72226;BME280;60130;52.250;5.048;2023-09-19T15:35:00;1006.3;;;18.0;80.5
72226;BME280;60130;52.250;5.048;2023-09-19T15:40:00;1006.2;;;18.1;80.0
72226;BME280;60130;52.250;5.048;2023-09-19T15:45:00;1006.2;;;18.1;78.9
72226;BME280;60130;52.250;5.048;2023-09-19T15:50:00;1006.2;;;18.3;78.1
72226;BME280;60130;52.250;5.048;2023-09-19T15:55:02;1006.1;;;18.4;76.8
72226;BME280;60130;52.250;5.048;2023-09-19T16:00:00;1006.2;;;18.5;76.8
72226;BME280;60130;52.250;5.048;2023-09-19T16:05:00;1006.5;;;18.5;77.0
72226;BME280;60130;52.250;5.048;2023-09-19T16:10:02;1006.3;;;18.1;79.6
72226;BME280;60130;52.250;5.048;2023-09-19T16:15:00;1006.4;;;17.8;81.6
72226;BME280;60130;52.250;5.048;2023-09-19T16:20:00;1006.5;;;17.8;81.8
72226;BME280;60130;52.250;5.048;2023-09-19T16:25:00;1006.5;;;17.7;82.7
72226;BME280;60130;52.250;5.048;2023-09-19T16:30:00;1006.4;;;17.6;83.8
72226;BME280;60130;52.250;5.048;2023-09-19T16:35:00;1006.3;;;17.5;84.8
72226;BME280;60130;52.250;5.048;2023-09-19T16:40:00;1006.4;;;17.5;84.5
72226;BME280;60130;52.250;5.048;2023-09-19T16:45:00;1006.3;;;17.5;84.4
72226;BME280;60130;52.250;5.048;2023-09-19T16:50:00;1006.3;;;17.5;83.6
72226;BME280;60130;52.250;5.048;2023-09-19T16:55:00;1006.4;;;17.5;83.9
72226;BME280;60130;52.250;5.048;2023-09-19T17:00:00;1006.3;;;17.5;84.2
72226;BME280;60130;52.250;5.048;2023-09-19T17:05:00;1006.4;;;17.4;84.3
72226;BME280;60130;52.250;5.048;2023-09-19T17:10:00;1006.5;;;17.4;84.8
72226;BME280;60130;52.250;5.048;2023-09-19T17:15:00;1006.4;;;17.4;84.8
72226;BME280;60130;52.250;5.048;2023-09-19T17:20:00;1006.5;;;17.4;84.7
72226;BME280;60130;52.250;5.048;2023-09-19T17:25:00;1006.4;;;17.3;84.9
72226;BME280;60130;52.250;5.048;2023-09-19T17:30:00;1006.4;;;17.3;85.8
72226;BME280;60130;52.250;5.048;2023-09-19T17:35:00;1006.4;;;17.2;86.2
72226;BME280;60130;52.250;5.048;2023-09-19T17:40:00;1006.4;;;17.2;86.6
72226;BME280;60130;52.250;5.048;2023-09-19T17:45:00;1006.4;;;17.1;86.8
72226;BME280;60130;52.250;5.048;2023-09-19T17:50:00;1006.5;;;17.0;87.6
72226;BME280;60130;52.250;5.048;2023-09-19T17:55:00;1006.5;;;16.9;88.4
72226;BME280;60130;52.250;5.048;2023-09-19T18:00:00;1006.6;;;16.9;88.7
72226;BME280;60130;52.250;5.048;2023-09-19T18:05:00;1006.6;;;16.8;89.0
72226;BME280;60130;52.250;5.048;2023-09-19T18:10:00;1006.5;;;16.8;89.1
72226;BME280;60130;52.250;5.048;2023-09-19T18:15:00;1006.4;;;16.9;89.0
72226;BME280;60130;52.250;5.048;2023-09-19T18:20:00;1006.6;;;16.8;89.1
72226;BME280;60130;52.250;5.048;2023-09-19T18:25:00;1006.7;;;16.8;89.1
72226;BME280;60130;52.250;5.048;2023-09-19T18:30:00;1006.7;;;16.8;89.0
72226;BME280;60130;52.250;5.048;2023-09-19T18:35:00;1006.7;;;16.9;88.9
72226;BME280;60130;52.250;5.048;2023-09-19T18:40:00;1006.8;;;16.9;88.3
72226;BME280;60130;52.250;5.048;2023-09-19T18:45:00;1006.7;;;16.9;88.3
72226;BME280;60130;52.250;5.048;2023-09-19T18:50:01;1006.8;;;17.0;88.0
72226;BME280;60130;52.250;5.048;2023-09-19T18:55:00;1006.8;;;17.0;87.6
72226;BME280;60130;52.250;5.048;2023-09-19T19:00:00;1006.7;;;17.0;88.0
72226;BME280;60130;52.250;5.048;2023-09-19T19:05:00;1006.6;;;17.0;87.9
72226;BME280;60130;52.250;5.048;2023-09-19T19:10:00;1006.6;;;17.0;87.7
72226;BME280;60130;52.250;5.048;2023-09-19T19:15:00;1006.6;;;17.0;87.9
72226;BME280;60130;52.250;5.048;2023-09-19T19:20:00;1006.6;;;17.1;87.2
72226;BME280;60130;52.250;5.048;2023-09-19T19:25:00;1006.5;;;17.1;87.0
72226;BME280;60130;52.250;5.048;2023-09-19T19:30:00;1006.5;;;17.2;86.6
72226;BME280;60130;52.250;5.048;2023-09-19T19:35:00;1006.6;;;17.2;86.4
72226;BME280;60130;52.250;5.048;2023-09-19T19:40:00;1006.7;;;17.3;86.3
72226;BME280;60130;52.250;5.048;2023-09-19T19:45:00;1006.7;;;17.3;86.0
72226;BME280;60130;52.250;5.048;2023-09-19T19:50:00;1006.7;;;17.3;86.2
72226;BME280;60130;52.250;5.048;2023-09-19T19:55:00;1006.7;;;17.3;86.2
72226;BME280;60130;52.250;5.048;2023-09-19T20:00:00;1006.8;;;17.3;86.0
72226;BME280;60130;52.250;5.048;2023-09-19T20:05:00;1006.8;;;17.3;85.4
72226;BME280;60130;52.250;5.048;2023-09-19T20:10:00;1006.9;;;17.3;85.7
72226;BME280;60130;52.250;5.048;2023-09-19T20:15:00;1007.0;;;17.4;85.5
72226;BME280;60130;52.250;5.048;2023-09-19T20:20:00;1007.0;;;17.4;85.7
72226;BME280;60130;52.250;5.048;2023-09-19T20:25:00;1006.9;;;17.3;86.5
72226;BME280;60130;52.250;5.048;2023-09-19T20:30:00;1006.8;;;17.4;86.4
72226;BME280;60130;52.250;5.048;2023-09-19T20:35:00;1006.8;;;17.4;86.1
72226;BME280;60130;52.250;5.048;2023-09-19T20:40:00;1006.7;;;17.4;86.0
72226;BME280;60130;52.250;5.048;2023-09-19T20:45:00;1006.8;;;17.5;85.7
72226;BME280;60130;52.250;5.048;2023-09-19T20:50:00;1006.8;;;17.5;85.9
72226;BME280;60130;52.250;5.048;2023-09-19T20:55:00;1006.7;;;17.6;85.9
72226;BME280;60130;52.250;5.048;2023-09-19T21:00:00;1006.7;;;17.5;86.3
72226;BME280;60130;52.250;5.048;2023-09-19T21:05:00;1006.7;;;17.6;85.9
72226;BME280;60130;52.250;5.048;2023-09-19T21:10:00;1006.7;;;17.6;85.5
72226;BME280;60130;52.250;5.048;2023-09-19T21:15:00;1006.6;;;17.6;85.2
72226;BME280;60130;52.250;5.048;2023-09-19T21:20:00;1006.6;;;17.7;84.8
72226;BME280;60130;52.250;5.048;2023-09-19T21:25:00;1006.5;;;17.8;84.5
72226;BME280;60130;52.250;5.048;2023-09-19T21:30:00;1006.5;;;17.8;84.1
72226;BME280;60130;52.250;5.048;2023-09-19T21:35:00;1006.4;;;17.9;83.5
72226;BME280;60130;52.250;5.048;2023-09-19T21:40:00;1006.2;;;17.9;83.4
72226;BME280;60130;52.250;5.048;2023-09-19T21:45:00;1006.5;;;18.0;83.4
72226;BME280;60130;52.250;5.048;2023-09-19T21:50:00;1006.4;;;17.9;84.0
72226;BME280;60130;52.250;5.048;2023-09-19T21:55:00;1006.3;;;17.9;84.4
72226;BME280;60130;52.250;5.048;2023-09-19T22:00:00;1006.4;;;17.9;84.4
72226;BME280;60130;52.250;5.048;2023-09-19T22:05:00;1006.5;;;17.8;84.8
72226;BME280;60130;52.250;5.048;2023-09-19T22:10:00;1006.5;;;17.8;85.2
72226;BME280;60130;52.250;5.048;2023-09-19T22:15:00;1006.5;;;17.8;85.2
72226;BME280;60130;52.250;5.048;2023-09-19T22:20:00;1006.4;;;17.8;85.1
72226;BME280;60130;52.250;5.048;2023-09-19T22:25:00;1006.5;;;17.9;84.3
72226;BME280;60130;52.250;5.048;2023-09-19T22:30:00;1006.4;;;17.9;83.7
72226;BME280;60130;52.250;5.048;2023-09-19T22:35:00;1006.4;;;18.0;83.7
72226;BME280;60130;52.250;5.048;2023-09-19T22:40:00;1006.4;;;18.1;83.1
72226;BME280;60130;52.250;5.048;2023-09-19T22:45:00;1006.4;;;18.1;83.0
72226;BME280;60130;52.250;5.048;2023-09-19T22:50:00;1006.4;;;18.2;82.3
72226;BME280;60130;52.250;5.048;2023-09-19T22:55:00;1006.5;;;18.2;82.3
72226;BME280;60130;52.250;5.048;2023-09-19T23:00:00;1006.3;;;18.2;82.2
72226;BME280;60130;52.250;5.048;2023-09-19T23:05:00;1006.4;;;18.2;81.7
72226;BME280;60130;52.250;5.048;2023-09-19T23:10:00;1006.5;;;18.2;81.3
72226;BME280;60130;52.250;5.048;2023-09-19T23:15:00;1006.5;;;18.3;80.9
72226;BME280;60130;52.250;5.048;2023-09-19T23:20:00;1006.6;;;18.4;80.5
72226;BME280;60130;52.250;5.048;2023-09-19T23:25:00;1006.5;;;18.4;80.2
72226;BME280;60130;52.250;5.048;2023-09-19T23:30:00;1006.5;;;18.5;80.2
72226;BME280;60130;52.250;5.048;2023-09-19T23:35:00;1006.6;;;18.4;80.0
72226;BME280;60130;52.250;5.048;2023-09-19T23:40:00;1006.6;;;18.5;79.7
72226;BME280;60130;52.250;5.048;2023-09-19T23:45:00;1006.6;;;18.4;80.2
72226;BME280;60130;52.250;5.048;2023-09-19T23:50:00;1006.6;;;18.6;79.7
72226;BME280;60130;52.250;5.048;2023-09-19T23:55:00;1006.5;;;18.5;79.8
